sensor_id;sensor_type;location;lat;lon;timestamp;pressure;altitude;pressure_sealevel;temperature;humidity
26775;BME280;14362;51.902;7.626;2023-03-15T00:02:22;100396.66;;;3.23;100.00
26775;BME280;14362;51.902;7.626;2023-03-15T00:06:25;100409.53;;;3.33;100.00
26775;BME280;14362;51.902;7.626;2023-03-15T00:10:27;100417.50;;;3.39;100.00
26775;BME280;14362;51.902;7.626;2023-03-15T00:14:28;100434.81;;;3.45;100.00
26775;BME280;14362;51.902;7.626;2023-03-15T00:18:31;100426.25;;;3.46;100.00
26775;BME280;14362;51.902;7.626;2023-03-15T00:22:34;100430.00;;;3.60;100.00
26775;BME280;14362;51.902;7.626;2023-03-15T00:26:35;100438.25;;;3.65;100.00
26775;BME280;14362;51.902;7.626;2023-03-15T00:30:36;100438.78;;;3.67;100.00
26775;BME280;14362;51.902;7.626;2023-03-15T00:34:38;100438.56;;;3.64;100.00
26775;BME280;14362;51.902;7.626;2023-03-15T00:38:41;100453.16;;;3.59;100.00
26775;BME280;14362;51.902;7.626;2023-03-15T00:42:44;100463.06;;;3.60;100.00
26775;BME280;14362;51.902;7.626;2023-03-15T00:46:51;100475.50;;;3.58;100.00
26775;BME280;14362;51.902;7.626;2023-03-15T00:51:00;100483.22;;;3.56;100.00
26775;BME280;14362;51.902;7.626;2023-03-15T00:55:04;100487.97;;;3.45;100.00
26775;BME280;14362;51.902;7.626;2023-03-15T00:59:06;100492.47;;;3.26;100.00
26775;BME280;14362;51.902;7.626;2023-03-15T01:03:07;100500.00;;;3.11;100.00
26775;BME280;14362;51.902;7.626;2023-03-15T01:07:09;100504.72;;;2.91;100.00
26775;BME280;14362;51.902;7.626;2023-03-15T01:11:14;100513.03;;;2.81;100.00
26775;BME280;14362;51.902;7.626;2023-03-15T01:15:16;100505.88;;;2.70;100.00
26775;BME280;14362;51.902;7.626;2023-03-15T01:19:18;100505.38;;;2.63;100.00
26775;BME280;14362;51.902;7.626;2023-03-15T01:23:19;100503.16;;;2.55;100.00
26775;BME280;14362;51.902;7.626;2023-03-15T01:27:22;100501.81;;;2.52;100.00
26775;BME280;14362;51.902;7.626;2023-03-15T01:31:25;100504.00;;;2.40;100.00
26775;BME280;14362;51.902;7.626;2023-03-15T01:35:27;100509.25;;;2.42;100.00
26775;BME280;14362;51.902;7.626;2023-03-15T01:39:28;100517.19;;;2.38;100.00
26775;BME280;14362;51.902;7.626;2023-03-15T01:43:32;100505.13;;;2.34;100.00
26775;BME280;14362;51.902;7.626;2023-03-15T01:47:33;100508.69;;;2.30;100.00
26775;BME280;14362;51.902;7.626;2023-03-15T01:51:38;100516.69;;;2.26;100.00
26775;BME280;14362;51.902;7.626;2023-03-15T01:55:42;100519.97;;;2.28;100.00
26775;BME280;14362;51.902;7.626;2023-03-15T01:59:47;100512.81;;;2.32;100.00
26775;BME280;14362;51.902;7.626;2023-03-15T02:03:55;100511.97;;;2.27;100.00
26775;BME280;14362;51.902;7.626;2023-03-15T02:07:58;100528.22;;;2.28;100.00
26775;BME280;14362;51.902;7.626;2023-03-15T02:12:01;100532.06;;;2.27;100.00
26775;BME280;14362;51.902;7.626;2023-03-15T02:16:06;100541.69;;;2.30;100.00
26775;BME280;14362;51.902;7.626;2023-03-15T02:20:16;100541.44;;;2.31;100.00
26775;BME280;14362;51.902;7.626;2023-03-15T02:24:33;100553.25;;;2.32;100.00
26775;BME280;14362;51.902;7.626;2023-03-15T02:28:41;100549.38;;;2.33;100.00
26775;BME280;14362;51.902;7.626;2023-03-15T02:32:42;100558.75;;;2.37;100.00
26775;BME280;14362;51.902;7.626;2023-03-15T02:36:44;100558.75;;;2.42;100.00
26775;BME280;14362;51.902;7.626;2023-03-15T02:40:46;100557.91;;;2.36;100.00
26775;BME280;14362;51.902;7.626;2023-03-15T02:44:49;100569.19;;;2.40;100.00
26775;BME280;14362;51.902;7.626;2023-03-15T02:48:52;100575.53;;;2.45;100.00
26775;BME280;14362;51.902;7.626;2023-03-15T02:52:54;100577.72;;;2.48;100.00
26775;BME280;14362;51.902;7.626;2023-03-15T02:56:56;100589.81;;;2.47;100.00
26775;BME280;14362;51.902;7.626;2023-03-15T03:00:58;100581.84;;;2.51;100.00
26775;BME280;14362;51.902;7.626;2023-03-15T03:05:00;100581.28;;;2.49;100.00
26775;BME280;14362;51.902;7.626;2023-03-15T03:09:01;100594.50;;;2.57;100.00
26775;BME280;14362;51.902;7.626;2023-03-15T03:13:03;100603.31;;;2.59;100.00
26775;BME280;14362;51.902;7.626;2023-03-15T03:17:06;100609.91;;;2.58;100.00
26775;BME280;14362;51.902;7.626;2023-03-15T03:21:08;100619.81;;;2.59;100.00
26775;BME280;14362;51.902;7.626;2023-03-15T03:25:10;100635.19;;;2.50;100.00
26775;BME280;14362;51.902;7.626;2023-03-15T03:29:12;100633.28;;;2.60;100.00
26775;BME280;14362;51.902;7.626;2023-03-15T03:33:17;100645.66;;;2.68;100.00
26775;BME280;14362;51.902;7.626;2023-03-15T03:37:19;100653.13;;;2.72;100.00
26775;BME280;14362;51.902;7.626;2023-03-15T03:41:20;100657.50;;;2.73;100.00
26775;BME280;14362;51.902;7.626;2023-03-15T03:45:22;100659.72;;;2.66;100.00
26775;BME280;14362;51.902;7.626;2023-03-15T03:49:25;100677.88;;;2.67;100.00
26775;BME280;14362;51.902;7.626;2023-03-15T03:53:26;100682.81;;;2.65;100.00
26775;BME280;14362;51.902;7.626;2023-03-15T03:57:28;100682.53;;;2.72;100.00
26775;BME280;14362;51.902;7.626;2023-03-15T04:01:29;100686.13;;;2.67;100.00
26775;BME280;14362;51.902;7.626;2023-03-15T04:05:32;100692.72;;;2.71;100.00
26775;BME280;14362;51.902;7.626;2023-03-15T04:09:34;100701.78;;;2.67;100.00
26775;BME280;14362;51.902;7.626;2023-03-15T04:13:36;100706.75;;;2.65;100.00
26775;BME280;14362;51.902;7.626;2023-03-15T04:17:38;100711.16;;;2.71;100.00
26775;BME280;14362;51.902;7.626;2023-03-15T04:21:41;100721.88;;;2.77;100.00
26775;BME280;14362;51.902;7.626;2023-03-15T04:25:47;100732.34;;;2.80;100.00
26775;BME280;14362;51.902;7.626;2023-03-15T04:29:49;100728.22;;;2.73;100.00
26775;BME280;14362;51.902;7.626;2023-03-15T04:33:51;100728.75;;;2.70;100.00
26775;BME280;14362;51.902;7.626;2023-03-15T04:37:54;100723.81;;;2.72;100.00
26775;BME280;14362;51.902;7.626;2023-03-15T04:41:56;100727.09;;;2.59;100.00
26775;BME280;14362;51.902;7.626;2023-03-15T04:45:57;100733.97;;;2.51;100.00
26775;BME280;14362;51.902;7.626;2023-03-15T04:49:59;100734.50;;;2.43;100.00
26775;BME280;14362;51.902;7.626;2023-03-15T04:54:02;100738.31;;;2.27;100.00
26775;BME280;14362;51.902;7.626;2023-03-15T04:58:03;100754.53;;;2.34;100.00
26775;BME280;14362;51.902;7.626;2023-03-15T05:02:05;100757.84;;;2.36;100.00
26775;BME280;14362;51.902;7.626;2023-03-15T05:06:06;100768.56;;;2.32;100.00
26775;BME280;14362;51.902;7.626;2023-03-15T05:10:10;100770.53;;;2.42;100.00
26775;BME280;14362;51.902;7.626;2023-03-15T05:14:12;100779.31;;;2.39;100.00
26775;BME280;14362;51.902;7.626;2023-03-15T05:18:13;100779.84;;;2.36;100.00
26775;BME280;14362;51.902;7.626;2023-03-15T05:22:15;100774.63;;;2.39;100.00
26775;BME280;14362;51.902;7.626;2023-03-15T05:26:18;100776.28;;;2.35;100.00
26775;BME280;14362;51.902;7.626;2023-03-15T05:30:19;100793.00;;;2.29;100.00
26775;BME280;14362;51.902;7.626;2023-03-15T05:34:21;100798.78;;;2.27;100.00
26775;BME280;14362;51.902;7.626;2023-03-15T05:38:23;100796.88;;;2.33;100.00
26775;BME280;14362;51.902;7.626;2023-03-15T05:42:27;100815.28;;;2.27;100.00
26775;BME280;14362;51.902;7.626;2023-03-15T05:46:29;100828.50;;;2.30;100.00
26775;BME280;14362;51.902;7.626;2023-03-15T05:50:31;100837.03;;;2.34;100.00
26775;BME280;14362;51.902;7.626;2023-03-15T05:54:33;100834.56;;;2.37;100.00
26775;BME280;14362;51.902;7.626;2023-03-15T05:58:36;100859.88;;;2.39;100.00
26775;BME280;14362;51.902;7.626;2023-03-15T06:02:37;100856.59;;;2.42;100.00
26775;BME280;14362;51.902;7.626;2023-03-15T06:06:39;100866.00;;;2.46;100.00
26775;BME280;14362;51.902;7.626;2023-03-15T06:10:40;100877.81;;;2.42;100.00
26775;BME280;14362;51.902;7.626;2023-03-15T06:14:43;100875.63;;;2.44;100.00
26775;BME280;14362;51.902;7.626;2023-03-15T06:18:44;100884.66;;;2.39;100.00
26775;BME280;14362;51.902;7.626;2023-03-15T06:22:46;100897.88;;;2.42;100.00
26775;BME280;14362;51.902;7.626;2023-03-15T06:26:48;100887.13;;;2.36;100.00
26775;BME280;14362;51.902;7.626;2023-03-15T06:30:50;100901.16;;;2.34;100.00
26775;BME280;14362;51.902;7.626;2023-03-15T06:34:52;100898.91;;;2.31;100.00
26775;BME280;14362;51.902;7.626;2023-03-15T06:38:53;100904.09;;;2.28;100.00
26775;BME280;14362;51.902;7.626;2023-03-15T06:42:55;100918.16;;;2.31;100.00
26775;BME280;14362;51.902;7.626;2023-03-15T06:46:57;100923.91;;;2.30;100.00
26775;BME280;14362;51.902;7.626;2023-03-15T06:50:59;100925.63;;;2.36;100.00
26775;BME280;14362;51.902;7.626;2023-03-15T06:55:00;100927.81;;;2.34;100.00
26775;BME280;14362;51.902;7.626;2023-03-15T06:59:02;100936.34;;;2.37;100.00
26775;BME280;14362;51.902;7.626;2023-03-15T07:03:05;100941.06;;;2.42;100.00
26775;BME280;14362;51.902;7.626;2023-03-15T07:07:06;100946.59;;;2.52;100.00
26775;BME280;14362;51.902;7.626;2023-03-15T07:11:08;100961.78;;;2.59;100.00
26775;BME280;14362;51.902;7.626;2023-03-15T07:15:10;100971.66;;;2.55;100.00
26775;BME280;14362;51.902;7.626;2023-03-15T07:19:13;100964.88;;;2.73;100.00
26775;BME280;14362;51.902;7.626;2023-03-15T07:23:15;100965.47;;;2.85;100.00
26775;BME280;14362;51.902;7.626;2023-03-15T07:27:17;100966.38;;;3.00;100.00
26775;BME280;14362;51.902;7.626;2023-03-15T07:31:18;100978.25;;;3.05;100.00
26775;BME280;14362;51.902;7.626;2023-03-15T07:35:21;100983.50;;;3.12;100.00
26775;BME280;14362;51.902;7.626;2023-03-15T07:39:22;100985.78;;;3.25;100.00
26775;BME280;14362;51.902;7.626;2023-03-15T07:43:25;100988.84;;;3.38;100.00
26775;BME280;14362;51.902;7.626;2023-03-15T07:47:28;101002.91;;;3.42;100.00
26775;BME280;14362;51.902;7.626;2023-03-15T07:51:31;101007.03;;;3.39;100.00
26775;BME280;14362;51.902;7.626;2023-03-15T07:55:33;101008.38;;;3.37;100.00
26775;BME280;14362;51.902;7.626;2023-03-15T07:59:34;101017.53;;;3.52;100.00
26775;BME280;14362;51.902;7.626;2023-03-15T08:03:36;101017.84;;;3.66;100.00
26775;BME280;14362;51.902;7.626;2023-03-15T08:07:38;101022.78;;;3.69;100.00
26775;BME280;14362;51.902;7.626;2023-03-15T08:11:40;101038.53;;;3.78;100.00
26775;BME280;14362;51.902;7.626;2023-03-15T08:15:44;101045.16;;;3.87;100.00
26775;BME280;14362;51.902;7.626;2023-03-15T08:19:45;101057.00;;;3.88;100.00
26775;BME280;14362;51.902;7.626;2023-03-15T08:23:48;101060.63;;;3.88;100.00
26775;BME280;14362;51.902;7.626;2023-03-15T08:27:50;101063.94;;;3.95;100.00
26775;BME280;14362;51.902;7.626;2023-03-15T08:31:51;101068.91;;;3.93;100.00
26775;BME280;14362;51.902;7.626;2023-03-15T08:35:53;101085.19;;;4.04;100.00
26775;BME280;14362;51.902;7.626;2023-03-15T08:39:56;101089.31;;;4.02;100.00
26775;BME280;14362;51.902;7.626;2023-03-15T08:44:00;101091.56;;;4.15;100.00
26775;BME280;14362;51.902;7.626;2023-03-15T08:48:02;101100.91;;;4.19;100.00
26775;BME280;14362;51.902;7.626;2023-03-15T08:52:04;101104.78;;;4.23;100.00
26775;BME280;14362;51.902;7.626;2023-03-15T08:56:07;101112.53;;;4.31;100.00
26775;BME280;14362;51.902;7.626;2023-03-15T09:00:09;101121.94;;;4.45;100.00
26775;BME280;14362;51.902;7.626;2023-03-15T09:04:15;101132.72;;;4.61;100.00
26775;BME280;14362;51.902;7.626;2023-03-15T09:08:16;101129.41;;;4.79;100.00
26775;BME280;14362;51.902;7.626;2023-03-15T09:12:21;101128.81;;;4.92;100.00
26775;BME280;14362;51.902;7.626;2023-03-15T09:16:23;101126.03;;;5.02;100.00
26775;BME280;14362;51.902;7.626;2023-03-15T09:20:24;101115.88;;;4.88;100.00
26775;BME280;14362;51.902;7.626;2023-03-15T09:24:27;101121.09;;;4.94;100.00
26775;BME280;14362;51.902;7.626;2023-03-15T09:28:30;101130.47;;;5.08;100.00
26775;BME280;14362;51.902;7.626;2023-03-15T09:32:31;101133.47;;;5.16;100.00
26775;BME280;14362;51.902;7.626;2023-03-15T09:36:35;101146.75;;;5.24;100.00
26775;BME280;14362;51.902;7.626;2023-03-15T09:40:38;101143.97;;;5.24;100.00
26775;BME280;14362;51.902;7.626;2023-03-15T09:44:44;101135.41;;;5.26;100.00
26775;BME280;14362;51.902;7.626;2023-03-15T09:48:50;101147.00;;;5.28;100.00
26775;BME280;14362;51.902;7.626;2023-03-15T09:52:56;101153.84;;;5.55;100.00
26775;BME280;14362;51.902;7.626;2023-03-15T09:57:03;101155.41;;;5.76;100.00
26775;BME280;14362;51.902;7.626;2023-03-15T10:01:12;101148.81;;;5.82;100.00
26775;BME280;14362;51.902;7.626;2023-03-15T10:05:19;101146.53;;;5.89;100.00
26775;BME280;14362;51.902;7.626;2023-03-15T10:09:23;101143.19;;;5.97;100.00
26775;BME280;14362;51.902;7.626;2023-03-15T10:13:39;101150.09;;;6.00;100.00
26775;BME280;14362;51.902;7.626;2023-03-15T10:17:51;101138.75;;;6.01;100.00
26775;BME280;14362;51.902;7.626;2023-03-15T10:22:02;101148.16;;;6.00;100.00
26775;BME280;14362;51.902;7.626;2023-03-15T10:26:07;101142.66;;;5.95;100.00
26775;BME280;14362;51.902;7.626;2023-03-15T10:30:15;101147.66;;;5.88;100.00
26775;BME280;14362;51.902;7.626;2023-03-15T10:34:18;101155.03;;;6.12;100.00
26775;BME280;14362;51.902;7.626;2023-03-15T10:38:23;101150.72;;;6.35;100.00
26775;BME280;14362;51.902;7.626;2023-03-15T10:42:29;101142.66;;;6.38;100.00
26775;BME280;14362;51.902;7.626;2023-03-15T10:46:31;101143.19;;;6.45;100.00
26775;BME280;14362;51.902;7.626;2023-03-15T10:50:37;101148.91;;;6.59;100.00
26775;BME280;14362;51.902;7.626;2023-03-15T10:54:39;101151.72;;;6.87;100.00
26775;BME280;14362;51.902;7.626;2023-03-15T10:58:45;101147.78;;;6.60;98.48
26775;BME280;14362;51.902;7.626;2023-03-15T11:02:49;101160.34;;;6.81;100.00
26775;BME280;14362;51.902;7.626;2023-03-15T11:07:00;101176.63;;;6.54;96.07
26775;BME280;14362;51.902;7.626;2023-03-15T11:11:03;101171.44;;;6.42;93.51
26775;BME280;14362;51.902;7.626;2023-03-15T11:15:10;101173.69;;;6.35;88.89
26775;BME280;14362;51.902;7.626;2023-03-15T11:19:15;101159.97;;;6.59;96.11
26775;BME280;14362;51.902;7.626;2023-03-15T11:23:21;101164.06;;;6.66;94.84
26775;BME280;14362;51.902;7.626;2023-03-15T11:27:26;101174.69;;;6.88;100.00
26775;BME280;14362;51.902;7.626;2023-03-15T11:31:29;101169.78;;;7.08;89.23
26775;BME280;14362;51.902;7.626;2023-03-15T11:35:32;101170.50;;;7.23;87.82
26775;BME280;14362;51.902;7.626;2023-03-15T11:39:40;101170.72;;;7.27;83.53
26775;BME280;14362;51.902;7.626;2023-03-15T11:43:51;101188.00;;;7.19;69.29
26775;BME280;14362;51.902;7.626;2023-03-15T11:47:57;101186.50;;;7.31;77.78
26775;BME280;14362;51.902;7.626;2023-03-15T11:52:02;101190.25;;;7.45;71.74
26775;BME280;14362;51.902;7.626;2023-03-15T11:56:21;101201.94;;;7.66;73.59
26775;BME280;14362;51.902;7.626;2023-03-15T12:00:50;101196.50;;;7.56;58.08
26775;BME280;14362;51.902;7.626;2023-03-15T12:04:54;101193.56;;;7.47;64.10
26775;BME280;14362;51.902;7.626;2023-03-15T12:08:55;101200.22;;;7.46;65.16
26775;BME280;14362;51.902;7.626;2023-03-15T12:13:05;101196.38;;;7.66;62.38
26775;BME280;14362;51.902;7.626;2023-03-15T12:17:37;101195.84;;;7.92;61.89
26775;BME280;14362;51.902;7.626;2023-03-15T12:21:44;101219.41;;;8.13;57.00
26775;BME280;14362;51.902;7.626;2023-03-15T12:25:51;101189.13;;;8.40;62.23
26775;BME280;14362;51.902;7.626;2023-03-15T12:30:00;101193.47;;;8.64;62.31
26775;BME280;14362;51.902;7.626;2023-03-15T12:34:02;101195.94;;;8.47;52.24
26775;BME280;14362;51.902;7.626;2023-03-15T12:38:11;101202.00;;;8.31;51.30
26775;BME280;14362;51.902;7.626;2023-03-15T12:46:58;101195.56;;;8.54;48.94
26775;BME280;14362;51.902;7.626;2023-03-15T12:51:05;101194.16;;;8.56;48.79
26775;BME280;14362;51.902;7.626;2023-03-15T12:55:14;101190.19;;;8.44;54.32
26775;BME280;14362;51.902;7.626;2023-03-15T12:59:20;101196.09;;;8.14;53.74
26775;BME280;14362;51.902;7.626;2023-03-15T13:03:25;101192.03;;;8.30;53.74
26775;BME280;14362;51.902;7.626;2023-03-15T13:07:36;101190.00;;;8.12;47.55
26775;BME280;14362;51.902;7.626;2023-03-15T13:11:50;101186.19;;;8.50;49.42
26775;BME280;14362;51.902;7.626;2023-03-15T13:16:14;101191.53;;;8.65;46.77
26775;BME280;14362;51.902;7.626;2023-03-15T13:20:34;101186.88;;;8.79;52.98
26775;BME280;14362;51.902;7.626;2023-03-15T13:24:43;101202.44;;;9.12;47.93
26775;BME280;14362;51.902;7.626;2023-03-15T13:28:55;101201.91;;;9.10;46.72
26775;BME280;14362;51.902;7.626;2023-03-15T13:33:04;101206.00;;;9.30;45.17
26775;BME280;14362;51.902;7.626;2023-03-15T13:37:14;101213.16;;;9.36;48.06
26775;BME280;14362;51.902;7.626;2023-03-15T13:41:18;101218.38;;;9.38;44.64
26775;BME280;14362;51.902;7.626;2023-03-15T13:45:21;101212.31;;;9.04;41.90
26775;BME280;14362;51.902;7.626;2023-03-15T13:49:24;101210.56;;;9.40;47.58
26775;BME280;14362;51.902;7.626;2023-03-15T13:53:33;101220.81;;;9.58;47.10
26775;BME280;14362;51.902;7.626;2023-03-15T13:57:34;101203.84;;;9.59;43.74
26775;BME280;14362;51.902;7.626;2023-03-15T14:01:38;101211.25;;;9.64;43.38
26775;BME280;14362;51.902;7.626;2023-03-15T14:05:43;101218.59;;;9.73;45.19
26775;BME280;14362;51.902;7.626;2023-03-15T14:09:47;101222.69;;;9.76;48.66
26775;BME280;14362;51.902;7.626;2023-03-15T14:13:50;101211.78;;;9.93;45.49
26775;BME280;14362;51.902;7.626;2023-03-15T14:17:58;101211.03;;;10.06;42.56
26775;BME280;14362;51.902;7.626;2023-03-15T14:22:02;101221.97;;;9.70;44.36
26775;BME280;14362;51.902;7.626;2023-03-15T14:26:14;101219.06;;;9.62;45.28
26775;BME280;14362;51.902;7.626;2023-03-15T14:30:18;101219.44;;;9.42;45.16
26775;BME280;14362;51.902;7.626;2023-03-15T14:34:24;101232.38;;;9.65;43.19
26775;BME280;14362;51.902;7.626;2023-03-15T14:38:34;101221.16;;;9.70;44.18
26775;BME280;14362;51.902;7.626;2023-03-15T14:42:37;101226.22;;;9.95;45.93
26775;BME280;14362;51.902;7.626;2023-03-15T14:46:38;101229.53;;;9.97;42.91
26775;BME280;14362;51.902;7.626;2023-03-15T14:50:41;101228.63;;;10.15;44.25
26775;BME280;14362;51.902;7.626;2023-03-15T14:54:45;101226.09;;;10.18;46.72
26775;BME280;14362;51.902;7.626;2023-03-15T14:58:50;101235.69;;;10.25;42.39
26775;BME280;14362;51.902;7.626;2023-03-15T15:02:54;101237.72;;;10.20;40.05
26775;BME280;14362;51.902;7.626;2023-03-15T15:06:56;101231.78;;;9.95;39.46
26775;BME280;14362;51.902;7.626;2023-03-15T15:10:58;101231.94;;;10.03;42.77
26775;BME280;14362;51.902;7.626;2023-03-15T15:15:12;101239.25;;;10.13;43.83
26775;BME280;14362;51.902;7.626;2023-03-15T15:19:14;101236.84;;;9.79;42.44
26775;BME280;14362;51.902;7.626;2023-03-15T15:23:17;101240.16;;;9.95;44.71
26775;BME280;14362;51.902;7.626;2023-03-15T15:27:19;101246.22;;;9.83;44.39
26775;BME280;14362;51.902;7.626;2023-03-15T15:31:24;101245.28;;;9.74;43.71
26775;BME280;14362;51.902;7.626;2023-03-15T15:35:25;101243.19;;;9.66;40.50
26775;BME280;14362;51.902;7.626;2023-03-15T15:39:28;101249.91;;;9.33;41.94
26775;BME280;14362;51.902;7.626;2023-03-15T15:43:30;101240.78;;;9.46;43.68
26775;BME280;14362;51.902;7.626;2023-03-15T15:47:32;101244.59;;;9.18;40.90
26775;BME280;14362;51.902;7.626;2023-03-15T15:51:35;101248.75;;;8.84;42.68
26775;BME280;14362;51.902;7.626;2023-03-15T15:55:38;101245.09;;;8.70;42.09
26775;BME280;14362;51.902;7.626;2023-03-15T15:59:39;101248.25;;;8.64;43.99
26775;BME280;14362;51.902;7.626;2023-03-15T16:03:42;101245.31;;;8.55;41.54
26775;BME280;14362;51.902;7.626;2023-03-15T16:07:44;101246.44;;;8.31;39.54
26775;BME280;14362;51.902;7.626;2023-03-15T16:11:46;101247.13;;;8.41;41.53
26775;BME280;14362;51.902;7.626;2023-03-15T16:15:47;101248.03;;;8.37;41.24
26775;BME280;14362;51.902;7.626;2023-03-15T16:19:51;101249.41;;;8.16;42.98
26775;BME280;14362;51.902;7.626;2023-03-15T16:23:54;101245.03;;;8.10;43.58
26775;BME280;14362;51.902;7.626;2023-03-15T16:27:59;101251.84;;;7.94;43.31
26775;BME280;14362;51.902;7.626;2023-03-15T16:32:01;101262.00;;;7.80;45.06
26775;BME280;14362;51.902;7.626;2023-03-15T16:36:04;101253.72;;;7.75;46.72
26775;BME280;14362;51.902;7.626;2023-03-15T16:40:14;101259.94;;;7.67;46.47
26775;BME280;14362;51.902;7.626;2023-03-15T16:44:19;101260.63;;;7.54;50.17
26775;BME280;14362;51.902;7.626;2023-03-15T16:48:21;101262.13;;;7.42;51.74
26775;BME280;14362;51.902;7.626;2023-03-15T16:52:23;101260.00;;;7.29;53.15
26775;BME280;14362;51.902;7.626;2023-03-15T16:56:26;101270.06;;;7.20;54.25
26775;BME280;14362;51.902;7.626;2023-03-15T17:00:29;101264.53;;;7.15;52.15
26775;BME280;14362;51.902;7.626;2023-03-15T17:04:31;101273.22;;;7.04;53.90
26775;BME280;14362;51.902;7.626;2023-03-15T17:08:34;101279.97;;;6.93;55.37
26775;BME280;14362;51.902;7.626;2023-03-15T17:12:36;101282.78;;;6.83;54.75
26775;BME280;14362;51.902;7.626;2023-03-15T17:16:38;101280.13;;;6.68;60.04
26775;BME280;14362;51.902;7.626;2023-03-15T17:20:39;101282.72;;;6.49;61.91
26775;BME280;14362;51.902;7.626;2023-03-15T17:24:42;101293.56;;;6.36;58.95
26775;BME280;14362;51.902;7.626;2023-03-15T17:28:44;101287.78;;;6.27;63.43
26775;BME280;14362;51.902;7.626;2023-03-15T17:32:46;101292.00;;;6.10;63.80
26775;BME280;14362;51.902;7.626;2023-03-15T17:36:48;101284.84;;;5.94;66.01
26775;BME280;14362;51.902;7.626;2023-03-15T17:40:50;101288.47;;;5.85;68.55
26775;BME280;14362;51.902;7.626;2023-03-15T17:44:52;101302.31;;;5.75;72.89
26775;BME280;14362;51.902;7.626;2023-03-15T17:48:55;101307.53;;;5.66;75.19
26775;BME280;14362;51.902;7.626;2023-03-15T17:52:58;101311.16;;;5.52;84.27
26775;BME280;14362;51.902;7.626;2023-03-15T17:57:02;101308.94;;;5.39;88.07
26775;BME280;14362;51.902;7.626;2023-03-15T18:01:09;101305.09;;;5.35;92.45
26775;BME280;14362;51.902;7.626;2023-03-15T18:05:15;101308.41;;;5.27;98.33
26775;BME280;14362;51.902;7.626;2023-03-15T18:09:16;101311.69;;;5.19;100.00
26775;BME280;14362;51.902;7.626;2023-03-15T18:13:20;101304.81;;;5.06;100.00
26775;BME280;14362;51.902;7.626;2023-03-15T18:17:22;101315.28;;;5.04;100.00
26775;BME280;14362;51.902;7.626;2023-03-15T18:21:25;101311.41;;;4.96;100.00
26775;BME280;14362;51.902;7.626;2023-03-15T18:25:28;101319.69;;;4.86;100.00
26775;BME280;14362;51.902;7.626;2023-03-15T18:29:31;101315.22;;;4.80;100.00
26775;BME280;14362;51.902;7.626;2023-03-15T18:33:33;101319.34;;;4.67;100.00
26775;BME280;14362;51.902;7.626;2023-03-15T18:37:34;101331.19;;;4.63;100.00
26775;BME280;14362;51.902;7.626;2023-03-15T18:41:36;101337.50;;;4.53;100.00
26775;BME280;14362;51.902;7.626;2023-03-15T18:45:39;101334.94;;;4.37;100.00
26775;BME280;14362;51.902;7.626;2023-03-15T18:49:41;101326.94;;;4.35;100.00
26775;BME280;14362;51.902;7.626;2023-03-15T18:53:43;101334.91;;;4.27;100.00
26775;BME280;14362;51.902;7.626;2023-03-15T18:57:45;101336.22;;;4.14;100.00
26775;BME280;14362;51.902;7.626;2023-03-15T19:01:47;101336.44;;;4.03;100.00
26775;BME280;14362;51.902;7.626;2023-03-15T19:05:49;101352.94;;;3.93;100.00
26775;BME280;14362;51.902;7.626;2023-03-15T19:09:50;101349.28;;;3.83;100.00
26775;BME280;14362;51.902;7.626;2023-03-15T19:13:52;101352.81;;;3.78;100.00
26775;BME280;14362;51.902;7.626;2023-03-15T19:17:55;101350.03;;;3.73;100.00
26775;BME280;14362;51.902;7.626;2023-03-15T19:21:56;101346.94;;;3.65;100.00
26775;BME280;14362;51.902;7.626;2023-03-15T19:25:58;101347.72;;;3.60;100.00
26775;BME280;14362;51.902;7.626;2023-03-15T19:29:59;101359.50;;;3.51;100.00
26775;BME280;14362;51.902;7.626;2023-03-15T19:34:02;101355.28;;;3.43;100.00
26775;BME280;14362;51.902;7.626;2023-03-15T19:38:04;101366.03;;;3.40;100.00
26775;BME280;14362;51.902;7.626;2023-03-15T19:42:05;101354.69;;;3.36;100.00
26775;BME280;14362;51.902;7.626;2023-03-15T19:46:07;101353.78;;;3.26;100.00
26775;BME280;14362;51.902;7.626;2023-03-15T19:50:12;101358.09;;;3.17;100.00
26775;BME280;14362;51.902;7.626;2023-03-15T19:54:14;101360.69;;;3.02;100.00
26775;BME280;14362;51.902;7.626;2023-03-15T19:58:16;101367.28;;;3.01;100.00
26775;BME280;14362;51.902;7.626;2023-03-15T20:02:17;101370.84;;;2.97;100.00
26775;BME280;14362;51.902;7.626;2023-03-15T20:06:20;101377.84;;;2.83;100.00
26775;BME280;14362;51.902;7.626;2023-03-15T20:10:21;101372.59;;;2.81;100.00
26775;BME280;14362;51.902;7.626;2023-03-15T20:14:23;101383.50;;;2.71;100.00
26775;BME280;14362;51.902;7.626;2023-03-15T20:18:24;101380.38;;;2.63;100.00
26775;BME280;14362;51.902;7.626;2023-03-15T20:22:28;101388.03;;;2.61;100.00
26775;BME280;14362;51.902;7.626;2023-03-15T20:26:29;101387.91;;;2.51;100.00
26775;BME280;14362;51.902;7.626;2023-03-15T20:30:33;101387.31;;;2.49;100.00
26775;BME280;14362;51.902;7.626;2023-03-15T20:34:35;101390.03;;;2.44;100.00
26775;BME280;14362;51.902;7.626;2023-03-15T20:38:38;101385.06;;;2.46;100.00
26775;BME280;14362;51.902;7.626;2023-03-15T20:42:40;101388.34;;;2.43;100.00
26775;BME280;14362;51.902;7.626;2023-03-15T20:46:42;101391.34;;;2.41;100.00
26775;BME280;14362;51.902;7.626;2023-03-15T20:50:45;101383.38;;;2.40;100.00
26775;BME280;14362;51.902;7.626;2023-03-15T20:54:48;101386.63;;;2.37;100.00
26775;BME280;14362;51.902;7.626;2023-03-15T20:58:49;101385.22;;;2.34;100.00
26775;BME280;14362;51.902;7.626;2023-03-15T21:02:51;101388.28;;;2.38;100.00
26775;BME280;14362;51.902;7.626;2023-03-15T21:06:53;101385.47;;;2.33;100.00
26775;BME280;14362;51.902;7.626;2023-03-15T21:10:56;101386.47;;;2.27;100.00
26775;BME280;14362;51.902;7.626;2023-03-15T21:14:57;101380.66;;;2.23;100.00
26775;BME280;14362;51.902;7.626;2023-03-15T21:18:59;101386.41;;;2.22;100.00
26775;BME280;14362;51.902;7.626;2023-03-15T21:23:00;101389.41;;;2.20;100.00